Time;durP1;ratioP1;P1;durP2;ratioP2;P2;SDS_P1;SDS_P2;PMS_P1;PMS_P2;Temp;Humidity;BMP_temperature;BMP_pressure;BME280_temperature;BME280_humidity;BME280_pressure;Samples;Min_cycle;Max_cycle;Signal;HPM_P1;HPM_P2
2023/07/01 00:02:32;;;;;;;8.48;3.08;;;;;;;-145.69;nan;52226.53;5075015;28;20199;-86
2023/07/01 00:05:01;;;;;;;4.80;3.03;;;;;;;-145.69;nan;52234.47;5055029;28;20214;-85
2023/07/01 00:07:28;;;;;;;5.10;3.30;;;;;;;-145.69;nan;52262.19;5055026;28;20204;-86
2023/07/01 00:09:55;;;;;;;7.82;3.50;;;;;;;-145.69;nan;52192.88;5054890;28;20203;-86
2023/07/01 00:12:25;;;;;;;7.20;3.33;;;;;;;-145.69;nan;52248.34;5055727;28;20210;-86
2023/07/01 00:14:52;;;;;;;3.47;2.88;;;;;;;-145.69;nan;52230.50;5074603;28;20233;-86
2023/07/01 00:17:21;;;;;;;5.03;3.15;;;;;;;-145.69;nan;52224.56;5075113;28;20223;-86
2023/07/01 00:20:08;;;;;;;5.30;2.85;;;;;;;-145.69;nan;52226.53;5074535;28;20225;-86
2023/07/01 00:22:35;;;;;;;6.28;3.25;;;;;;;-145.69;nan;52212.69;5074388;28;20214;-86
2023/07/01 00:25:22;;;;;;;4.10;2.72;;;;;;;-145.69;nan;52208.72;5074746;28;20252;-87
2023/07/01 00:27:59;;;;;;;4.13;2.58;;;;;;;-145.69;nan;52236.44;5074769;28;20654;-88
2023/07/01 00:30:28;;;;;;;4.15;2.78;;;;;;;-145.69;nan;52234.47;5074981;28;20202;-88
2023/07/01 00:33:00;;;;;;;4.43;2.83;;;;;;;-145.69;nan;52230.50;5074909;28;20214;-89
2023/07/01 00:35:31;;;;;;;8.35;2.97;;;;;;;-145.69;nan;52242.38;5075403;28;20207;-89
2023/07/01 00:38:03;;;;;;;4.30;2.80;;;;;;;-145.69;nan;52240.41;5075380;28;20245;-89
2023/07/01 00:40:34;;;;;;;11.07;2.70;;;;;;;-145.69;nan;52226.53;5075073;28;20206;-89
2023/07/01 00:45:52;;;;;;;5.90;3.08;;;;;;;-145.69;nan;52204.75;5055318;28;20665;-89
2023/07/01 00:48:26;;;;;;;4.78;2.67;;;;;;;-145.69;nan;52210.72;5054684;28;20231;-88
2023/07/01 00:50:57;;;;;;;7.70;2.85;;;;;;;-145.69;nan;52232.50;5069888;28;20233;-89
2023/07/01 00:53:26;;;;;;;5.15;2.78;;;;;;;-145.69;nan;52216.66;5074946;28;20209;-89
2023/07/01 00:55:56;;;;;;;5.38;2.65;;;;;;;-145.69;nan;52196.84;5074905;28;20256;-89
2023/07/01 00:58:23;;;;;;;4.70;2.60;;;;;;;-145.69;nan;52240.41;5074487;28;20272;-89
2023/07/01 01:00:49;;;;;;;5.88;2.70;;;;;;;-145.69;nan;52226.53;5074932;28;20575;-89
2023/07/01 01:03:26;;;;;;;4.53;2.47;;;;;;;-145.69;nan;52228.53;5074713;28;20230;-89
2023/07/01 01:06:04;;;;;;;3.72;2.63;;;;;;;-145.69;nan;52244.38;5074617;28;20225;-89
2023/07/01 01:08:40;;;;;;;3.70;2.35;;;;;;;-145.69;nan;52224.56;5074497;28;20201;-88
2023/07/01 01:11:13;;;;;;;6.30;2.75;;;;;;;-145.69;nan;52266.16;5074680;28;20206;-88
2023/07/01 01:13:43;;;;;;;4.50;2.53;;;;;;;-145.69;nan;52238.44;5074292;28;20542;-89
2023/07/01 01:16:11;;;;;;;8.32;2.90;;;;;;;-145.69;nan;52230.50;5073926;28;20202;-89
2023/07/01 01:18:42;;;;;;;5.95;2.45;;;;;;;-145.69;nan;52240.41;5073756;28;20719;-89
2023/07/01 01:21:12;;;;;;;9.75;2.88;;;;;;;-145.69;nan;52206.75;5073932;28;20206;-88
2023/07/01 01:23:46;;;;;;;5.80;2.50;;;;;;;-145.69;nan;52218.63;5074393;28;20301;-89
2023/07/01 01:26:18;;;;;;;3.50;2.60;;;;;;;-145.69;nan;52218.63;5073714;28;20305;-89
2023/07/01 01:28:47;;;;;;;4.60;2.53;;;;;;;-145.69;nan;52238.44;5073963;28;20226;-89
2023/07/01 01:31:14;;;;;;;4.07;2.80;;;;;;;-145.69;nan;52218.63;5073787;28;20195;-89
2023/07/01 01:33:41;;;;;;;7.32;2.95;;;;;;;-145.69;nan;52238.44;5073915;28;20213;-89
2023/07/01 01:36:10;;;;;;;3.25;2.65;;;;;;;-145.69;nan;52242.38;5073880;28;20202;-88
2023/07/01 01:38:40;;;;;;;5.32;3.15;;;;;;;-145.69;nan;52234.47;5073885;28;20313;-88
2023/07/01 01:41:10;;;;;;;6.10;2.80;;;;;;;-145.69;nan;52206.75;5073903;28;20203;-88
2023/07/01 01:43:45;;;;;;;8.27;3.00;;;;;;;-145.69;nan;52230.50;5073985;28;20294;-89
2023/07/01 01:46:14;;;;;;;6.72;2.70;;;;;;;-145.69;nan;52254.28;5073691;28;20206;-88
2023/07/01 01:48:41;;;;;;;6.57;2.92;;;;;;;-145.69;nan;52204.75;5073871;28;20211;-88
2023/07/01 01:51:08;;;;;;;4.88;2.72;;;;;;;-145.69;nan;52254.28;5073506;28;20685;-88
2023/07/01 01:53:37;;;;;;;7.28;2.83;;;;;;;-145.69;nan;52272.09;5072797;28;20294;-89
2023/07/01 01:56:05;;;;;;;6.28;3.22;;;;;;;-145.69;nan;52246.34;5073296;28;20199;-89
2023/07/01 01:58:31;;;;;;;3.53;2.70;;;;;;;-145.69;nan;52242.38;5073500;28;20693;-88
2023/07/01 02:00:58;;;;;;;5.00;2.75;;;;;;;-145.69;nan;52238.44;5073065;28;20195;-89
2023/07/01 02:03:26;;;;;;;4.05;2.70;;;;;;;-145.69;nan;52228.53;5073719;28;20206;-89
2023/07/01 02:05:53;;;;;;;10.48;2.80;;;;;;;-145.69;nan;52206.75;5073678;28;20206;-88
2023/07/01 02:08:19;;;;;;;8.93;3.10;;;;;;;-145.69;nan;52254.28;5073495;28;20673;-88
2023/07/01 02:10:46;;;;;;;4.38;2.78;;;;;;;-145.69;nan;52262.19;5073270;28;20213;-89
2023/07/01 02:13:12;;;;;;;5.05;2.97;;;;;;;-145.69;nan;52250.31;5073688;28;20202;-88
2023/07/01 02:15:39;;;;;;;7.82;2.95;;;;;;;-145.69;nan;52238.44;5073358;28;20206;-88
2023/07/01 02:18:05;;;;;;;4.72;2.67;;;;;;;-145.69;nan;52250.31;5073381;28;20230;-88
2023/07/01 02:20:36;;;;;;;6.63;3.00;;;;;;;-145.69;nan;52238.44;5073848;28;20210;-88
2023/07/01 02:23:02;;;;;;;8.93;2.90;;;;;;;-145.69;nan;52232.50;5073496;28;20221;-89
2023/07/01 02:25:29;;;;;;;5.93;2.80;;;;;;;-145.69;nan;52230.50;5073779;28;20206;-88
2023/07/01 02:27:56;;;;;;;6.25;2.95;;;;;;;-145.69;nan;52234.47;5073636;28;20224;-89
2023/07/01 02:30:22;;;;;;;6.15;2.80;;;;;;;-145.69;nan;52240.41;5073215;28;20569;-88
2023/07/01 02:32:48;;;;;;;5.22;3.55;;;;;;;-145.69;nan;52224.56;5073399;28;20237;-89
2023/07/01 02:35:15;;;;;;;6.53;3.30;;;;;;;-145.69;nan;52234.47;5073574;28;20198;-88
2023/07/01 02:37:43;;;;;;;4.40;2.92;;;;;;;-145.69;nan;52238.44;5072424;28;20550;-89
2023/07/01 02:40:10;;;;;;;3.88;2.75;;;;;;;-145.69;nan;52234.47;5072898;28;20190;-88
2023/07/01 02:42:37;;;;;;;7.07;2.97;;;;;;;-145.69;nan;52234.47;5073329;28;20195;-89
2023/07/01 02:45:04;;;;;;;7.50;3.40;;;;;;;-145.69;nan;52234.47;5070279;28;20213;-88
2023/07/01 02:47:31;;;;;;;5.57;3.13;;;;;;;-145.69;nan;52254.28;5073054;28;20207;-88
2023/07/01 02:49:58;;;;;;;6.18;3.03;;;;;;;-145.69;nan;52236.44;5073215;28;20226;-89
2023/07/01 02:52:24;;;;;;;7.47;3.00;;;;;;;-145.69;nan;52226.53;5074179;28;20206;-88
2023/07/01 02:54:52;;;;;;;4.45;2.95;;;;;;;-145.69;nan;52254.28;5073428;28;20202;-89
2023/07/01 02:57:19;;;;;;;3.78;2.72;;;;;;;-145.69;nan;52242.38;5074790;28;20199;-89
2023/07/01 02:59:48;;;;;;;7.32;3.40;;;;;;;-145.69;nan;52272.09;5076575;28;20226;-88
2023/07/01 03:02:15;;;;;;;5.07;2.80;;;;;;;-145.69;nan;52244.38;5076516;28;20229;-88
2023/07/01 03:04:41;;;;;;;4.15;2.67;;;;;;;-145.69;nan;52268.13;5076557;28;20210;-89
2023/07/01 03:07:08;;;;;;;3.75;2.85;;;;;;;-145.69;nan;52258.22;5076583;28;20209;-88
2023/07/01 03:09:34;;;;;;;5.22;3.25;;;;;;;-145.69;nan;52252.28;5076204;28;20206;-89
2023/07/01 03:12:02;;;;;;;7.28;3.05;;;;;;;-145.69;nan;52274.06;5056539;28;20291;-88
2023/07/01 03:14:29;;;;;;;4.72;2.72;;;;;;;-145.69;nan;52218.63;5061162;28;20222;-88
2023/07/01 03:16:55;;;;;;;5.05;2.70;;;;;;;-145.69;nan;52230.50;5076280;28;20199;-88
2023/07/01 03:19:23;;;;;;;5.68;3.05;;;;;;;-145.69;nan;52242.38;5076061;28;20391;-88
2023/07/01 03:21:50;;;;;;;6.88;2.72;;;;;;;-145.69;nan;52246.34;5076444;28;20210;-88
2023/07/01 03:24:16;;;;;;;3.90;2.85;;;;;;;-145.69;nan;52258.22;5076537;28;20506;-88
2023/07/01 03:26:44;;;;;;;4.00;2.70;;;;;;;-145.69;nan;52230.50;5075973;28;20205;-88
2023/07/01 03:29:12;;;;;;;7.35;3.38;;;;;;;-145.69;nan;52244.38;5075459;28;20191;-88
2023/07/01 03:31:39;;;;;;;6.63;3.10;;;;;;;-145.69;nan;52232.50;5075912;28;20650;-87
2023/07/01 03:34:05;;;;;;;5.45;2.85;;;;;;;-145.69;nan;52262.19;5076201;28;20202;-88
2023/07/01 03:36:32;;;;;;;5.75;2.90;;;;;;;-145.69;nan;52278.03;5075756;28;20205;-88
2023/07/01 03:38:59;;;;;;;4.70;2.88;;;;;;;-145.69;nan;52285.97;5075807;28;20719;-87
2023/07/01 03:41:25;;;;;;;8.95;3.30;;;;;;;-145.69;nan;52244.38;5075390;28;20240;-87
2023/07/01 03:43:52;;;;;;;4.45;2.50;;;;;;;-145.69;nan;52270.13;5075496;28;20203;-87
2023/07/01 03:46:20;;;;;;;7.13;2.72;;;;;;;-145.69;nan;52240.41;5075762;28;20663;-87
2023/07/01 03:48:46;;;;;;;4.63;2.55;;;;;;;-145.69;nan;52266.16;5075778;28;20194;-88
2023/07/01 03:51:13;;;;;;;3.40;2.50;;;;;;;-145.69;nan;52244.38;5075531;28;20305;-87
2023/07/01 03:53:41;;;;;;;5.18;2.33;;;;;;;-145.69;nan;52224.56;5075724;28;20205;-87
2023/07/01 03:56:07;;;;;;;4.30;2.70;;;;;;;-145.69;nan;52216.66;5075157;28;20289;-86
2023/07/01 03:58:34;;;;;;;9.60;2.65;;;;;;;-145.69;nan;52258.22;5074709;28;20222;-85
2023/07/01 04:01:04;;;;;;;3.67;2.70;;;;;;;-145.69;nan;52258.22;5074844;28;20191;-86
2023/07/01 04:03:33;;;;;;;3.80;2.58;;;;;;;-145.69;nan;52220.59;5074569;28;20653;-85
2023/07/01 04:05:59;;;;;;;3.30;2.65;;;;;;;-145.69;nan;52262.19;5074984;28;20285;-85
2023/07/01 04:08:27;;;;;;;3.10;2.58;;;;;;;-145.69;nan;52220.59;5072444;28;20289;-85
2023/07/01 04:10:54;;;;;;;6.47;2.83;;;;;;;-145.69;nan;52258.22;5074839;28;20742;-84
2023/07/01 04:13:20;;;;;;;4.28;2.55;;;;;;;-145.69;nan;52242.38;5074483;28;20309;-84
2023/07/01 04:15:47;;;;;;;3.83;2.60;;;;;;;-145.69;nan;52238.44;5074936;28;20549;-86
2023/07/01 04:18:13;;;;;;;4.32;2.58;;;;;;;-145.69;nan;52242.38;5074940;28;20301;-86
2023/07/01 04:20:41;;;;;;;4.72;2.65;;;;;;;-145.69;nan;52250.31;5075051;28;20207;-86
2023/07/01 04:23:08;;;;;;;5.50;2.83;;;;;;;-145.69;nan;52250.31;5074650;28;20206;-86
2023/07/01 04:25:34;;;;;;;9.57;3.05;;;;;;;-145.69;nan;52226.53;5074866;28;20206;-86
2023/07/01 04:28:01;;;;;;;4.38;2.80;;;;;;;-145.69;nan;52226.53;5074280;28;20584;-86
2023/07/01 04:30:28;;;;;;;5.07;2.78;;;;;;;-145.69;nan;52272.09;5074763;28;20195;-86
2023/07/01 04:32:54;;;;;;;3.40;2.53;;;;;;;-145.69;nan;52224.56;5074717;28;20199;-86
2023/07/01 04:35:21;;;;;;;4.13;2.63;;;;;;;-145.69;nan;52248.34;5074888;28;20203;-86
2023/07/01 04:37:49;;;;;;;4.68;2.47;;;;;;;-145.69;nan;52210.72;5074266;28;20202;-86
2023/07/01 04:40:16;;;;;;;8.52;2.65;;;;;;;-145.69;nan;52254.28;5074034;28;20609;-86
2023/07/01 04:42:48;;;;;;;6.70;2.60;;;;;;;-145.69;nan;52266.16;5064166;28;20195;-86
2023/07/01 04:45:15;;;;;;;4.68;2.70;;;;;;;-145.69;nan;52250.31;5074431;28;20199;-86
2023/07/01 04:47:43;;;;;;;8.20;2.50;;;;;;;-145.69;nan;52214.66;5073510;28;20205;-85
2023/07/01 04:50:10;;;;;;;4.70;2.50;;;;;;;-145.69;nan;52254.28;5073453;28;20317;-86
2023/07/01 04:52:37;;;;;;;4.65;2.45;;;;;;;-145.69;nan;52262.19;5066793;28;20195;-86
2023/07/01 04:55:06;;;;;;;4.05;2.83;;;;;;;-145.69;nan;52242.38;5074299;28;20202;-86
2023/07/01 04:57:32;;;;;;;4.55;2.63;;;;;;;-145.69;nan;52244.38;5074407;28;20202;-86
2023/07/01 04:59:59;;;;;;;4.03;2.67;;;;;;;-145.69;nan;52254.28;5073530;28;20689;-86
2023/07/01 05:02:25;;;;;;;10.85;2.90;;;;;;;-145.69;nan;52274.06;5074373;28;20203;-86
2023/07/01 05:04:51;;;;;;;3.38;2.88;;;;;;;-145.69;nan;52246.34;5074174;28;20195;-87
2023/07/01 05:07:18;;;;;;;4.38;2.80;;;;;;;-145.69;nan;52240.41;5073742;28;20199;-86
2023/07/01 05:09:44;;;;;;;4.85;2.88;;;;;;;-145.69;nan;52252.28;5073689;28;20681;-86
2023/07/01 05:12:13;;;;;;;3.92;2.50;;;;;;;-145.69;nan;52266.16;5074165;28;20550;-86
2023/07/01 05:14:39;;;;;;;5.00;3.00;;;;;;;-145.69;nan;52248.34;5073924;28;20198;-86
2023/07/01 05:17:06;;;;;;;6.15;2.72;;;;;;;-145.69;nan;52248.34;5074227;28;20256;-86
2023/07/01 05:19:33;;;;;;;6.13;2.90;;;;;;;-145.69;nan;52248.34;5073425;28;20262;-85
2023/07/01 05:21:59;;;;;;;5.90;3.10;;;;;;;-145.69;nan;52254.28;5073434;28;20195;-85
2023/07/01 05:24:26;;;;;;;6.10;2.92;;;;;;;-145.69;nan;52283.97;5073483;28;20191;-86
2023/07/01 05:26:53;;;;;;;5.13;3.08;;;;;;;-145.69;nan;52272.09;5072490;28;20233;-85
2023/07/01 05:29:21;;;;;;;3.17;2.58;;;;;;;-145.69;nan;52262.19;5073483;28;20744;-85
2023/07/01 05:31:49;;;;;;;3.28;2.78;;;;;;;-145.69;nan;52232.50;5073126;28;20254;-85
2023/07/01 05:34:18;;;;;;;6.75;3.10;;;;;;;-145.69;nan;52246.34;5073039;28;20285;-85
2023/07/01 05:36:45;;;;;;;7.78;3.30;;;;;;;-145.69;nan;52309.72;5069538;28;20216;-85
2023/07/01 05:39:12;;;;;;;8.65;2.75;;;;;;;-145.69;nan;52278.03;5072787;28;20222;-86
2023/07/01 05:41:38;;;;;;;6.03;2.65;;;;;;;-145.69;nan;52222.59;5073222;28;20203;-87
2023/07/01 05:44:05;;;;;;;4.35;2.60;;;;;;;-145.69;nan;52278.03;5073051;28;20198;-87
2023/07/01 05:46:33;;;;;;;4.22;2.70;;;;;;;-145.69;nan;52224.56;5073403;28;20203;-85
2023/07/01 05:48:59;;;;;;;6.95;3.67;;;;;;;-145.69;nan;52262.19;5073770;28;20203;-86
2023/07/01 05:51:26;;;;;;;4.30;2.95;;;;;;;-145.69;nan;52230.50;5073499;28;20707;-86
2023/07/01 05:53:52;;;;;;;6.68;2.83;;;;;;;-145.69;nan;52285.97;5073429;28;20198;-86
2023/07/01 05:56:19;;;;;;;7.57;2.65;;;;;;;-145.69;nan;52226.53;5073081;28;20209;-86
2023/07/01 05:58:45;;;;;;;3.80;2.67;;;;;;;-145.69;nan;52285.97;5073442;28;20203;-85
2023/07/01 06:01:12;;;;;;;6.20;3.00;;;;;;;-145.69;nan;52262.19;5073510;28;20205;-86
2023/07/01 06:03:40;;;;;;;4.88;2.67;;;;;;;-145.69;nan;52248.34;5073097;28;20201;-86
2023/07/01 06:06:06;;;;;;;12.35;2.90;;;;;;;-145.69;nan;52254.28;5072247;28;20199;-85
2023/07/01 06:08:33;;;;;;;4.20;2.72;;;;;;;-145.69;nan;52246.34;5072846;28;20282;-86
2023/07/01 06:10:59;;;;;;;8.73;3.40;;;;;;;-145.69;nan;52258.22;5072954;28;20210;-86
2023/07/01 06:13:26;;;;;;;6.63;3.20;;;;;;;-145.69;nan;52238.44;5073279;28;20207;-86
2023/07/01 06:15:52;;;;;;;4.65;2.70;;;;;;;-145.69;nan;52266.16;5072947;28;20210;-85
2023/07/01 06:18:19;;;;;;;5.60;2.78;;;;;;;-145.69;nan;52278.03;5072625;28;20201;-84
2023/07/01 06:20:47;;;;;;;7.88;2.97;;;;;;;-145.69;nan;52258.22;5072367;28;20453;-86
2023/07/01 06:23:13;;;;;;;5.28;2.80;;;;;;;-145.69;nan;52254.28;5073368;28;20615;-86
2023/07/01 06:25:41;;;;;;;5.47;2.42;;;;;;;-145.69;nan;52228.53;5072951;28;20203;-86
2023/07/01 06:28:08;;;;;;;4.15;2.60;;;;;;;-145.69;nan;52226.53;5072880;28;20199;-85
2023/07/01 06:30:34;;;;;;;3.35;2.28;;;;;;;-145.69;nan;52246.34;5072845;28;20210;-85
2023/07/01 06:33:03;;;;;;;6.63;2.63;;;;;;;-145.69;nan;52234.47;5076395;28;20619;-85
2023/07/01 06:35:29;;;;;;;6.88;2.50;;;;;;;-145.69;nan;52254.28;5076300;28;20285;-85
2023/07/01 06:37:57;;;;;;;4.60;2.50;;;;;;;-145.69;nan;52242.38;5076618;28;20715;-85
2023/07/01 06:40:24;;;;;;;4.20;2.40;;;;;;;-145.69;nan;52246.34;5075730;28;20219;-85
2023/07/01 06:42:51;;;;;;;3.42;2.28;;;;;;;-145.69;nan;52222.59;5074398;28;20206;-85
2023/07/01 06:45:18;;;;;;;11.88;2.30;;;;;;;-145.69;nan;52258.22;5058049;28;20229;-85
2023/07/01 06:47:45;;;;;;;25.65;3.03;;;;;;;-145.69;nan;52216.66;5056270;28;20252;-85
2023/07/01 06:50:11;;;;;;;5.38;2.35;;;;;;;-145.69;nan;52230.50;5055933;28;20333;-88
2023/07/01 06:52:38;;;;;;;3.45;2.30;;;;;;;-145.69;nan;52232.50;5076613;28;20202;-87
2023/07/01 06:55:07;;;;;;;3.47;2.20;;;;;;;-145.69;nan;52230.50;5075351;28;20679;-86
2023/07/01 06:57:34;;;;;;;7.00;2.22;;;;;;;-145.69;nan;52248.34;5076210;28;20332;-86
2023/07/01 07:00:00;;;;;;;7.75;2.15;;;;;;;-145.69;nan;52220.59;5076087;28;20229;-85
2023/07/01 07:02:27;;;;;;;3.60;2.10;;;;;;;-145.69;nan;52236.44;5076094;28;20657;-86
2023/07/01 07:04:53;;;;;;;7.63;2.33;;;;;;;-145.69;nan;52238.44;5076072;28;20199;-87
2023/07/01 07:07:21;;;;;;;4.72;2.10;;;;;;;-145.69;nan;52198.81;5076614;28;20202;-87
2023/07/01 07:09:47;;;;;;;9.20;2.28;;;;;;;-145.69;nan;52248.34;5075982;28;20226;-87
2023/07/01 07:12:17;;;;;;;7.35;2.22;;;;;;;-145.69;nan;52208.72;5076122;28;20630;-87
2023/07/01 07:14:44;;;;;;;7.63;2.45;;;;;;;-145.69;nan;52186.94;5075881;28;20559;-86
2023/07/01 07:17:14;;;;;;;7.45;2.20;;;;;;;-145.69;nan;52204.75;5075952;28;20642;-86
2023/07/01 07:19:40;;;;;;;7.38;2.33;;;;;;;-145.69;nan;52179.03;5075763;28;20254;-87
2023/07/01 07:22:07;;;;;;;4.90;1.90;;;;;;;-145.69;nan;52204.75;5075551;28;20213;-86
2023/07/01 07:24:37;;;;;;;7.10;2.00;;;;;;;-145.69;nan;52206.75;5075762;28;20286;-88
2023/07/01 07:27:10;;;;;;;5.75;1.70;;;;;;;-145.69;nan;52173.09;5075267;28;20209;-87
2023/07/01 07:29:39;;;;;;;5.20;2.22;;;;;;;-145.69;nan;52151.28;5075415;28;20290;-84
2023/07/01 07:32:07;;;;;;;3.72;2.08;;;;;;;-145.69;nan;52198.81;5075407;28;20207;-83
2023/07/01 07:34:39;;;;;;;4.45;2.00;;;;;;;-145.69;nan;52175.06;5074813;28;20195;-85
2023/07/01 07:37:07;;;;;;;2.83;1.80;;;;;;;-145.69;nan;52182.97;5055489;28;20272;-87
2023/07/01 07:39:38;;;;;;;4.95;2.25;;;;;;;-145.69;nan;52175.06;5069276;28;20202;-86
2023/07/01 07:42:07;;;;;;;8.02;2.38;;;;;;;-145.69;nan;52161.19;5075517;28;20707;-87
2023/07/01 07:44:36;;;;;;;4.83;2.20;;;;;;;-145.69;nan;52155.25;5074062;28;20446;-87
2023/07/01 07:47:10;;;;;;;9.27;1.77;;;;;;;-145.69;nan;52153.28;5075275;28;20199;-86
2023/07/01 07:49:39;;;;;;;3.85;2.08;;;;;;;-145.69;nan;52149.31;5075307;28;20753;-86
2023/07/01 07:52:06;;;;;;;6.10;1.88;;;;;;;-145.69;nan;52175.06;5075680;28;20203;-88
2023/07/01 07:54:36;;;;;;;4.95;2.10;;;;;;;-145.69;nan;52135.47;5075341;28;20226;-88
2023/07/01 07:57:03;;;;;;;5.35;1.85;;;;;;;-145.69;nan;52165.16;5075621;28;20560;-87
2023/07/01 07:59:32;;;;;;;3.38;2.13;;;;;;;-145.69;nan;52163.19;5075728;28;20207;-88
2023/07/01 08:02:01;;;;;;;6.63;1.90;;;;;;;-145.69;nan;52159.22;5075659;28;20230;-88
2023/07/01 08:04:29;;;;;;;4.63;1.92;;;;;;;-145.69;nan;52159.22;5074820;28;20252;-87
2023/07/01 08:06:56;;;;;;;9.48;2.45;;;;;;;-145.69;nan;52157.25;5072981;28;20195;-86
2023/07/01 08:09:22;;;;;;;7.03;2.35;;;;;;;-145.69;nan;52147.34;5075091;28;20199;-86
2023/07/01 08:11:49;;;;;;;8.45;2.10;;;;;;;-145.69;nan;52159.22;5075270;28;20596;-87
2023/07/01 08:14:16;;;;;;;4.68;2.00;;;;;;;-145.69;nan;52131.50;5074964;28;20252;-86
2023/07/01 08:16:46;;;;;;;4.95;1.90;;;;;;;-145.69;nan;52131.50;5073567;28;20198;-87
2023/07/01 08:19:16;;;;;;;5.78;2.35;;;;;;;-145.69;nan;52163.19;5074433;28;20213;-87
2023/07/01 08:21:44;;;;;;;6.63;2.10;;;;;;;-145.69;nan;52093.88;5074320;28;20229;-86
2023/07/01 08:24:15;;;;;;;4.50;2.05;;;;;;;-145.69;nan;52115.66;5074429;28;20706;-87
2023/07/01 08:26:42;;;;;;;6.75;2.25;;;;;;;-145.69;nan;52135.47;5074438;28;20195;-87
2023/07/01 08:29:10;;;;;;;7.70;2.33;;;;;;;-145.69;nan;52129.50;5074787;28;20290;-87
2023/07/01 08:31:40;;;;;;;3.30;2.10;;;;;;;-145.69;nan;52123.56;5075200;28;20634;-86
2023/07/01 08:34:09;;;;;;;5.75;2.03;;;;;;;-145.69;nan;52091.88;5073686;28;20680;-86
2023/07/01 08:36:37;;;;;;;4.00;2.15;;;;;;;-145.69;nan;52111.69;5074244;28;20207;-87
2023/07/01 08:39:07;;;;;;;6.65;2.17;;;;;;;-145.69;nan;52139.41;5074068;28;20206;-87
2023/07/01 08:41:46;;;;;;;7.65;1.98;;;;;;;-145.69;nan;52129.50;5074177;28;20697;-86
2023/07/01 08:44:13;;;;;;;6.93;2.20;;;;;;;-145.69;nan;52131.50;5074133;28;20229;-87
2023/07/01 08:46:41;;;;;;;3.72;2.20;;;;;;;-145.69;nan;52099.81;5074317;28;20207;-87
2023/07/01 08:49:11;;;;;;;5.25;2.10;;;;;;;-145.69;nan;52127.53;5073855;28;20201;-87
2023/07/01 08:51:47;;;;;;;5.43;2.28;;;;;;;-145.69;nan;52111.69;5061388;28;20258;-86
2023/07/01 08:54:17;;;;;;;3.53;2.00;;;;;;;-145.69;nan;52119.63;5053431;28;20225;-86
2023/07/01 08:56:48;;;;;;;2.75;1.85;;;;;;;-145.69;nan;52115.66;5054307;28;20627;-87
2023/07/01 08:59:15;;;;;;;4.88;1.95;;;;;;;-145.69;nan;52121.59;5053532;28;20206;-86
2023/07/01 09:01:44;;;;;;;5.10;1.95;;;;;;;-145.69;nan;52147.34;5054180;28;20234;-87
2023/07/01 09:04:10;;;;;;;6.20;2.08;;;;;;;-145.69;nan;52135.47;5070009;28;20491;-86
2023/07/01 09:06:40;;;;;;;6.30;1.92;;;;;;;-145.69;nan;52163.19;5073431;28;20285;-85
2023/07/01 09:09:06;;;;;;;10.35;2.30;;;;;;;-145.69;nan;52131.50;5073058;28;20563;-85
2023/07/01 09:11:44;;;;;;;5.55;2.10;;;;;;;-145.69;nan;52101.78;5072898;28;20191;-86
2023/07/01 09:14:16;;;;;;;6.97;2.17;;;;;;;-145.69;nan;52103.78;5073118;28;20201;-85
2023/07/01 09:16:43;;;;;;;3.15;2.15;;;;;;;-145.69;nan;52119.63;5073349;28;20221;-84
2023/07/01 09:19:16;;;;;;;10.63;2.17;;;;;;;-145.69;nan;52083.97;5073017;28;20289;-85
2023/07/01 09:21:43;;;;;;;5.05;1.88;;;;;;;-145.69;nan;52121.59;5072825;28;20233;-86
2023/07/01 09:24:12;;;;;;;3.15;1.60;;;;;;;-145.69;nan;52125.56;5073432;28;20285;-86
2023/07/01 09:26:44;;;;;;;9.93;1.88;;;;;;;-145.69;nan;52111.69;5073337;28;20282;-85
2023/07/01 09:29:14;;;;;;;3.85;1.85;;;;;;;-145.69;nan;52127.53;5073241;28;20194;-85
2023/07/01 09:31:46;;;;;;;4.60;1.77;;;;;;;-145.69;nan;52115.66;5073390;28;20203;-85
2023/07/01 09:34:12;;;;;;;4.20;1.70;;;;;;;-145.69;nan;52085.94;5072879;28;20199;-83
2023/07/01 09:36:41;;;;;;;4.82;1.73;;;;;;;-145.69;nan;52107.72;5072971;28;20198;-84
2023/07/01 09:39:07;;;;;;;6.68;1.85;;;;;;;-145.69;nan;52147.34;5072970;28;20198;-84
2023/07/01 09:41:34;;;;;;;2.55;1.83;;;;;;;-145.69;nan;52129.50;5072778;28;20222;-84
2023/07/01 09:44:15;;;;;;;3.53;1.70;;;;;;;-145.69;nan;52099.81;5072731;28;20214;-85
2023/07/01 09:46:46;;;;;;;3.00;1.90;;;;;;;-145.69;nan;52123.56;5073101;28;20617;-85
2023/07/01 09:49:13;;;;;;;5.05;2.13;;;;;;;-145.69;nan;52131.50;5072907;28;20206;-85
2023/07/01 09:51:48;;;;;;;3.97;1.80;;;;;;;-145.69;nan;52076.03;5071227;28;20283;-85
2023/07/01 09:54:25;;;;;;;5.72;1.63;;;;;;;-145.69;nan;52091.88;5072346;28;20557;-85
2023/07/01 09:56:54;;;;;;;6.40;1.85;;;;;;;-145.69;nan;52083.97;5072511;28;20225;-85
2023/07/01 09:59:23;;;;;;;3.72;1.70;;;;;;;-145.69;nan;52078.03;5073048;28;20199;-86
2023/07/01 10:01:54;;;;;;;5.07;1.70;;;;;;;-145.69;nan;52078.03;5072708;28;20232;-85
2023/07/01 10:04:34;;;;;;;3.40;2.15;;;;;;;-145.69;nan;52085.94;5072704;28;20222;-83
2023/07/01 10:07:03;;;;;;;2.90;1.70;;;;;;;-145.69;nan;52109.72;5076976;28;20290;-84
2023/07/01 10:09:38;;;;;;;4.88;1.70;;;;;;;-145.69;nan;52103.78;5076891;28;20198;-83
2023/07/01 10:12:06;;;;;;;2.03;1.30;;;;;;;-145.69;nan;52091.88;5076575;28;20206;-83
2023/07/01 10:14:47;;;;;;;6.95;1.95;;;;;;;-145.69;nan;52095.84;5076202;28;20198;-83
2023/07/01 10:17:15;;;;;;;4.75;1.98;;;;;;;-145.69;nan;52087.94;5076610;28;20230;-83
2023/07/01 10:19:46;;;;;;;3.58;2.33;;;;;;;-145.69;nan;52083.97;5075908;28;20190;-84
2023/07/01 10:22:29;;;;;;;4.97;1.67;;;;;;;-145.69;nan;52060.22;5076092;28;20680;-83
2023/07/01 10:25:02;;;;;;;5.53;2.05;;;;;;;-145.69;nan;52087.94;5076468;28;20281;-86
2023/07/01 10:28:15;;;;;;;3.60;1.42;;;;;;;-145.69;nan;52085.94;5076947;28;20641;-85
2023/07/01 10:31:15;;;;;;;4.38;1.70;;;;;;;-145.69;nan;52076.03;5076524;28;20661;-87
2023/07/01 10:34:09;;;;;;;3.22;1.52;;;;;;;-145.69;nan;52068.13;5064964;28;20553;-86
2023/07/01 10:37:12;;;;;;;2.88;1.40;;;;;;;-145.69;nan;52042.38;5040254;28;20285;-86
2023/07/01 10:39:43;;;;;;;6.10;1.65;;;;;;;-145.69;nan;52068.13;5076211;28;20199;-86
2023/07/01 10:42:31;;;;;;;3.88;1.38;;;;;;;-145.69;nan;52056.25;5076246;28;20234;-87
2023/07/01 10:45:39;;;;;;;7.40;1.77;;;;;;;-145.69;nan;52076.03;5075951;28;20205;-87
2023/07/01 10:48:19;;;;;;;6.13;1.80;;;;;;;-145.69;nan;52060.22;5076385;28;20561;-87
2023/07/01 10:54:02;;;;;;;3.15;1.50;;;;;;;-145.69;nan;52024.56;5075401;28;20210;-84
2023/07/01 10:56:33;;;;;;;3.33;1.70;;;;;;;-145.69;nan;52032.47;5076166;28;20285;-83
2023/07/01 10:59:20;;;;;;;3.63;1.80;;;;;;;-145.69;nan;52018.63;5075969;28;20210;-86
2023/07/01 11:01:57;;;;;;;2.67;1.40;;;;;;;-145.69;nan;52036.44;5075890;28;20227;-84
2023/07/01 11:04:26;;;;;;;6.38;1.88;;;;;;;-145.69;nan;52038.44;5068235;28;20202;-86
2023/07/01 11:06:54;;;;;;;2.10;1.50;;;;;;;-145.69;nan;52060.22;5075738;28;20206;-85
2023/07/01 11:09:32;;;;;;;5.80;1.77;;;;;;;-145.69;nan;52028.53;5074947;28;20719;-84
2023/07/01 11:12:00;;;;;;;4.47;1.65;;;;;;;-145.69;nan;51988.91;5075780;28;20242;-84
2023/07/01 11:14:31;;;;;;;5.95;1.98;;;;;;;-145.69;nan;52018.63;5075854;28;20285;-86
2023/07/01 11:17:08;;;;;;;3.40;1.70;;;;;;;-145.69;nan;51981.00;5074560;28;20626;-86
2023/07/01 11:19:37;;;;;;;7.47;1.85;;;;;;;-145.69;nan;51977.03;5075544;28;20782;-84
2023/07/01 11:22:04;;;;;;;2.30;1.63;;;;;;;-145.69;nan;52004.75;5074235;28;20229;-85
2023/07/01 11:24:34;;;;;;;3.97;2.13;;;;;;;-145.69;nan;52012.69;5075670;28;20215;-84
2023/07/01 11:27:11;;;;;;;2.88;1.40;;;;;;;-145.69;nan;52000.81;5075168;28;20203;-85
2023/07/01 11:29:45;;;;;;;4.05;1.90;;;;;;;-145.69;nan;51996.84;5075382;28;20191;-86
2023/07/01 11:32:14;;;;;;;3.33;1.83;;;;;;;-145.69;nan;52012.69;5075605;28;20665;-86
2023/07/01 11:34:46;;;;;;;3.95;2.10;;;;;;;-145.69;nan;51986.94;5075008;28;20195;-86
2023/07/01 11:37:28;;;;;;;2.80;1.80;;;;;;;-145.69;nan;52000.81;5075200;28;20230;-84
2023/07/01 11:40:02;;;;;;;5.70;2.08;;;;;;;-145.69;nan;51971.09;5072184;28;20205;-83
2023/07/01 11:42:29;;;;;;;3.67;2.00;;;;;;;-145.69;nan;51988.91;5073383;28;20288;-84
2023/07/01 11:44:56;;;;;;;3.67;1.90;;;;;;;-145.69;nan;51965.16;5074405;28;20195;-85
2023/07/01 11:47:22;;;;;;;3.83;1.70;;;;;;;-145.69;nan;51969.13;5074998;28;20202;-84
2023/07/01 11:49:52;;;;;;;3.67;2.17;;;;;;;-145.69;nan;51975.06;5074527;28;20676;-85
2023/07/01 11:52:29;;;;;;;4.82;1.95;;;;;;;-145.69;nan;51945.34;5074982;28;20210;-85